sensor_id;sensor_type;location;lat;lon;timestamp;P1;durP1;ratioP1;P2;durP2;ratioP2
43801;SDS011;29429;51.074;13.764;2023-09-12T00:01:36;17.08;;;13.93;;
43801;SDS011;29429;51.074;13.764;2023-09-12T00:04:04;15.95;;;14.25;;
43801;SDS011;29429;51.074;13.764;2023-09-12T00:06:32;19.67;;;14.38;;
43801;SDS011;29429;51.074;13.764;2023-09-12T00:08:59;13.65;;;12.30;;
43801;SDS011;29429;51.074;13.764;2023-09-12T00:11:27;15.90;;;14.20;;
43801;SDS011;29429;51.074;13.764;2023-09-12T00:13:54;18.00;;;15.32;;
43801;SDS011;29429;51.074;13.764;2023-09-12T00:16:22;16.73;;;14.90;;
43801;SDS011;29429;51.074;13.764;2023-09-12T00:18:49;20.25;;;16.17;;
43801;SDS011;29429;51.074;13.764;2023-09-12T00:21:17;15.98;;;14.27;;
43801;SDS011;29429;51.074;13.764;2023-09-12T00:23:44;16.83;;;15.00;;
43801;SDS011;29429;51.074;13.764;2023-09-12T00:26:11;17.65;;;15.77;;
43801;SDS011;29429;51.074;13.764;2023-09-12T00:28:40;15.93;;;13.95;;
43801;SDS011;29429;51.074;13.764;2023-09-12T00:31:08;15.75;;;14.15;;
43801;SDS011;29429;51.074;13.764;2023-09-12T00:33:35;17.35;;;14.90;;
43801;SDS011;29429;51.074;13.764;2023-09-12T00:36:03;17.77;;;14.70;;
43801;SDS011;29429;51.074;13.764;2023-09-12T00:38:31;17.60;;;15.20;;
43801;SDS011;29429;51.074;13.764;2023-09-12T00:40:58;19.83;;;15.75;;
43801;SDS011;29429;51.074;13.764;2023-09-12T00:43:26;15.98;;;14.27;;
43801;SDS011;29429;51.074;13.764;2023-09-12T00:45:53;17.08;;;15.27;;
43801;SDS011;29429;51.074;13.764;2023-09-12T00:48:21;17.60;;;15.80;;
43801;SDS011;29429;51.074;13.764;2023-09-12T00:50:49;16.98;;;15.18;;
43801;SDS011;29429;51.074;13.764;2023-09-12T00:53:20;16.45;;;14.68;;
43801;SDS011;29429;51.074;13.764;2023-09-12T00:55:51;16.88;;;14.75;;
43801;SDS011;29429;51.074;13.764;2023-09-12T00:58:23;19.27;;;15.68;;
43801;SDS011;29429;51.074;13.764;2023-09-12T01:00:51;16.90;;;15.20;;
43801;SDS011;29429;51.074;13.764;2023-09-12T01:03:19;16.48;;;14.75;;
43801;SDS011;29429;51.074;13.764;2023-09-12T01:05:47;16.80;;;14.88;;
43801;SDS011;29429;51.074;13.764;2023-09-12T01:08:15;21.20;;;17.30;;
43801;SDS011;29429;51.074;13.764;2023-09-12T01:10:42;18.52;;;16.52;;
43801;SDS011;29429;51.074;13.764;2023-09-12T01:13:13;18.90;;;16.80;;
43801;SDS011;29429;51.074;13.764;2023-09-12T01:15:41;17.38;;;15.43;;
43801;SDS011;29429;51.074;13.764;2023-09-12T01:18:08;17.42;;;15.57;;
43801;SDS011;29429;51.074;13.764;2023-09-12T01:20:39;17.90;;;15.98;;
43801;SDS011;29429;51.074;13.764;2023-09-12T01:23:44;19.75;;;17.20;;
43801;SDS011;29429;51.074;13.764;2023-09-12T01:26:17;18.42;;;16.42;;
43801;SDS011;29429;51.074;13.764;2023-09-12T01:29:05;18.15;;;15.75;;
43801;SDS011;29429;51.074;13.764;2023-09-12T01:31:34;19.17;;;16.90;;
43801;SDS011;29429;51.074;13.764;2023-09-12T01:34:10;21.08;;;16.65;;
43801;SDS011;29429;51.074;13.764;2023-09-12T01:36:38;18.35;;;16.20;;
43801;SDS011;29429;51.074;13.764;2023-09-12T01:39:05;18.50;;;16.50;;
43801;SDS011;29429;51.074;13.764;2023-09-12T01:41:34;19.13;;;16.20;;
43801;SDS011;29429;51.074;13.764;2023-09-12T01:44:06;19.33;;;16.85;;
43801;SDS011;29429;51.074;13.764;2023-09-12T01:46:36;18.20;;;16.15;;
43801;SDS011;29429;51.074;13.764;2023-09-12T01:49:05;20.42;;;17.88;;
43801;SDS011;29429;51.074;13.764;2023-09-12T01:51:35;22.65;;;17.77;;
43801;SDS011;29429;51.074;13.764;2023-09-12T01:54:03;18.52;;;16.65;;
43801;SDS011;29429;51.074;13.764;2023-09-12T01:56:33;19.42;;;15.88;;
43801;SDS011;29429;51.074;13.764;2023-09-12T01:59:02;19.75;;;17.65;;
43801;SDS011;29429;51.074;13.764;2023-09-12T02:01:29;19.85;;;17.23;;
43801;SDS011;29429;51.074;13.764;2023-09-12T02:03:58;19.73;;;17.10;;
43801;SDS011;29429;51.074;13.764;2023-09-12T02:06:25;20.60;;;17.17;;
43801;SDS011;29429;51.074;13.764;2023-09-12T02:08:53;20.42;;;17.05;;
43801;SDS011;29429;51.074;13.764;2023-09-12T02:11:20;22.10;;;18.10;;
43801;SDS011;29429;51.074;13.764;2023-09-12T02:13:47;20.65;;;17.48;;
43801;SDS011;29429;51.074;13.764;2023-09-12T02:16:15;19.23;;;17.23;;
43801;SDS011;29429;51.074;13.764;2023-09-12T02:18:42;19.30;;;17.30;;
43801;SDS011;29429;51.074;13.764;2023-09-12T02:21:10;20.13;;;17.83;;
43801;SDS011;29429;51.074;13.764;2023-09-12T02:23:38;19.58;;;17.30;;
43801;SDS011;29429;51.074;13.764;2023-09-12T02:26:05;22.02;;;18.77;;
43801;SDS011;29429;51.074;13.764;2023-09-12T02:28:33;21.70;;;18.55;;
43801;SDS011;29429;51.074;13.764;2023-09-12T02:31:00;19.15;;;17.13;;
43801;SDS011;29429;51.074;13.764;2023-09-12T02:33:28;20.92;;;17.65;;
43801;SDS011;29429;51.074;13.764;2023-09-12T02:35:55;19.67;;;17.58;;
43801;SDS011;29429;51.074;13.764;2023-09-12T02:38:23;22.08;;;17.35;;
43801;SDS011;29429;51.074;13.764;2023-09-12T02:40:50;18.80;;;16.80;;
43801;SDS011;29429;51.074;13.764;2023-09-12T02:43:18;20.63;;;18.05;;
43801;SDS011;29429;51.074;13.764;2023-09-12T02:45:45;19.33;;;16.75;;
43801;SDS011;29429;51.074;13.764;2023-09-12T02:48:13;19.55;;;17.10;;
43801;SDS011;29429;51.074;13.764;2023-09-12T02:50:40;19.38;;;17.25;;
43801;SDS011;29429;51.074;13.764;2023-09-12T02:53:08;20.05;;;16.92;;
43801;SDS011;29429;51.074;13.764;2023-09-12T02:55:39;19.63;;;17.40;;
43801;SDS011;29429;51.074;13.764;2023-09-12T02:58:07;20.63;;;18.00;;
43801;SDS011;29429;51.074;13.764;2023-09-12T03:00:38;19.30;;;16.63;;
43801;SDS011;29429;51.074;13.764;2023-09-12T03:03:08;22.27;;;17.77;;
43801;SDS011;29429;51.074;13.764;2023-09-12T03:05:37;21.20;;;17.80;;
43801;SDS011;29429;51.074;13.764;2023-09-12T03:08:05;19.60;;;17.50;;
43801;SDS011;29429;51.074;13.764;2023-09-12T03:10:32;19.75;;;17.40;;
43801;SDS011;29429;51.074;13.764;2023-09-12T03:12:59;20.83;;;17.90;;
43801;SDS011;29429;51.074;13.764;2023-09-12T03:15:27;21.15;;;18.75;;
43801;SDS011;29429;51.074;13.764;2023-09-12T03:17:54;21.88;;;18.02;;
43801;SDS011;29429;51.074;13.764;2023-09-12T03:20:22;21.15;;;18.65;;
43801;SDS011;29429;51.074;13.764;2023-09-12T03:22:49;19.70;;;17.70;;
43801;SDS011;29429;51.074;13.764;2023-09-12T03:25:17;19.92;;;17.80;;
43801;SDS011;29429;51.074;13.764;2023-09-12T03:27:44;21.67;;;19.20;;
43801;SDS011;29429;51.074;13.764;2023-09-12T03:30:12;21.73;;;19.42;;
43801;SDS011;29429;51.074;13.764;2023-09-12T03:32:39;21.55;;;19.17;;
43801;SDS011;29429;51.074;13.764;2023-09-12T03:35:07;21.92;;;19.13;;
43801;SDS011;29429;51.074;13.764;2023-09-12T03:37:34;23.15;;;18.98;;
43801;SDS011;29429;51.074;13.764;2023-09-12T03:40:06;25.10;;;20.05;;
43801;SDS011;29429;51.074;13.764;2023-09-12T03:42:34;20.33;;;18.15;;
43801;SDS011;29429;51.074;13.764;2023-09-12T03:45:09;20.40;;;18.07;;
43801;SDS011;29429;51.074;13.764;2023-09-12T03:47:37;23.38;;;20.00;;
43801;SDS011;29429;51.074;13.764;2023-09-12T03:50:06;21.77;;;19.48;;
43801;SDS011;29429;51.074;13.764;2023-09-12T03:52:34;22.38;;;19.92;;
43801;SDS011;29429;51.074;13.764;2023-09-12T03:55:01;22.52;;;19.52;;
43801;SDS011;29429;51.074;13.764;2023-09-12T03:57:29;24.88;;;19.42;;
43801;SDS011;29429;51.074;13.764;2023-09-12T03:59:56;21.75;;;18.58;;
43801;SDS011;29429;51.074;13.764;2023-09-12T04:02:30;23.45;;;19.02;;
43801;SDS011;29429;51.074;13.764;2023-09-12T04:04:57;21.92;;;18.17;;
43801;SDS011;29429;51.074;13.764;2023-09-12T04:07:26;21.30;;;19.10;;
43801;SDS011;29429;51.074;13.764;2023-09-12T04:09:53;22.50;;;18.73;;
43801;SDS011;29429;51.074;13.764;2023-09-12T04:12:21;22.10;;;19.33;;
43801;SDS011;29429;51.074;13.764;2023-09-12T04:14:52;25.58;;;20.42;;
43801;SDS011;29429;51.074;13.764;2023-09-12T04:17:21;24.00;;;19.27;;
43801;SDS011;29429;51.074;13.764;2023-09-12T04:19:49;25.80;;;19.98;;
43801;SDS011;29429;51.074;13.764;2023-09-12T04:22:16;23.25;;;19.33;;
43801;SDS011;29429;51.074;13.764;2023-09-12T04:24:46;21.55;;;19.33;;
43801;SDS011;29429;51.074;13.764;2023-09-12T04:27:14;21.90;;;19.60;;
43801;SDS011;29429;51.074;13.764;2023-09-12T04:29:41;25.48;;;19.20;;
43801;SDS011;29429;51.074;13.764;2023-09-12T04:32:09;24.90;;;18.88;;
43801;SDS011;29429;51.074;13.764;2023-09-12T04:34:36;22.52;;;19.48;;
43801;SDS011;29429;51.074;13.764;2023-09-12T04:37:04;20.80;;;18.17;;
43801;SDS011;29429;51.074;13.764;2023-09-12T04:39:33;23.77;;;19.38;;
43801;SDS011;29429;51.074;13.764;2023-09-12T04:42:01;22.52;;;18.50;;
43801;SDS011;29429;51.074;13.764;2023-09-12T04:44:49;22.23;;;18.98;;
43801;SDS011;29429;51.074;13.764;2023-09-12T04:47:21;25.13;;;18.55;;
43801;SDS011;29429;51.074;13.764;2023-09-12T04:52:19;23.27;;;19.08;;
43801;SDS011;29429;51.074;13.764;2023-09-12T04:54:47;28.33;;;20.05;;
43801;SDS011;29429;51.074;13.764;2023-09-12T04:57:14;24.67;;;19.48;;
43801;SDS011;29429;51.074;13.764;2023-09-12T04:59:42;21.92;;;18.45;;
43801;SDS011;29429;51.074;13.764;2023-09-12T05:02:09;24.17;;;19.13;;
43801;SDS011;29429;51.074;13.764;2023-09-12T05:04:37;24.20;;;18.60;;
43801;SDS011;29429;51.074;13.764;2023-09-12T05:07:04;25.50;;;18.90;;
43801;SDS011;29429;51.074;13.764;2023-09-12T05:09:32;25.42;;;19.48;;
43801;SDS011;29429;51.074;13.764;2023-09-12T05:11:59;24.67;;;18.60;;
43801;SDS011;29429;51.074;13.764;2023-09-12T05:14:27;22.88;;;18.48;;
43801;SDS011;29429;51.074;13.764;2023-09-12T05:16:54;24.08;;;19.20;;
43801;SDS011;29429;51.074;13.764;2023-09-12T05:19:22;19.27;;;17.27;;
43801;SDS011;29429;51.074;13.764;2023-09-12T05:21:51;20.83;;;18.38;;
43801;SDS011;29429;51.074;13.764;2023-09-12T05:24:19;27.35;;;19.20;;
43801;SDS011;29429;51.074;13.764;2023-09-12T05:26:46;26.63;;;18.95;;
43801;SDS011;29429;51.074;13.764;2023-09-12T05:29:15;23.50;;;18.27;;
43801;SDS011;29429;51.074;13.764;2023-09-12T05:31:43;28.77;;;17.88;;
43801;SDS011;29429;51.074;13.764;2023-09-12T05:34:10;33.67;;;20.05;;
43801;SDS011;29429;51.074;13.764;2023-09-12T05:36:38;36.75;;;18.95;;
43801;SDS011;29429;51.074;13.764;2023-09-12T05:39:06;26.13;;;17.88;;
43801;SDS011;29429;51.074;13.764;2023-09-12T05:41:33;27.23;;;19.02;;
43801;SDS011;29429;51.074;13.764;2023-09-12T05:44:00;31.75;;;18.42;;
43801;SDS011;29429;51.074;13.764;2023-09-12T05:46:28;31.45;;;18.88;;
43801;SDS011;29429;51.074;13.764;2023-09-12T05:48:56;34.33;;;18.02;;
43801;SDS011;29429;51.074;13.764;2023-09-12T05:51:23;31.58;;;18.25;;
43801;SDS011;29429;51.074;13.764;2023-09-12T05:53:51;34.72;;;18.88;;
43801;SDS011;29429;51.074;13.764;2023-09-12T05:59:04;43.47;;;19.40;;
43801;SDS011;29429;51.074;13.764;2023-09-12T06:01:32;29.98;;;17.90;;
43801;SDS011;29429;51.074;13.764;2023-09-12T06:03:59;29.70;;;18.38;;
43801;SDS011;29429;51.074;13.764;2023-09-12T06:06:27;27.33;;;18.67;;
43801;SDS011;29429;51.074;13.764;2023-09-12T06:08:54;20.25;;;16.95;;
43801;SDS011;29429;51.074;13.764;2023-09-12T06:11:24;18.23;;;15.88;;
43801;SDS011;29429;51.074;13.764;2023-09-12T06:13:51;21.77;;;17.25;;
43801;SDS011;29429;51.074;13.764;2023-09-12T06:16:19;19.75;;;17.23;;
43801;SDS011;29429;51.074;13.764;2023-09-12T06:18:46;18.63;;;16.52;;
43801;SDS011;29429;51.074;13.764;2023-09-12T06:21:14;17.70;;;15.90;;
43801;SDS011;29429;51.074;13.764;2023-09-12T06:23:42;17.98;;;15.50;;
43801;SDS011;29429;51.074;13.764;2023-09-12T06:26:09;18.67;;;16.40;;
43801;SDS011;29429;51.074;13.764;2023-09-12T06:28:37;20.23;;;16.27;;
43801;SDS011;29429;51.074;13.764;2023-09-12T06:31:07;19.38;;;16.50;;
43801;SDS011;29429;51.074;13.764;2023-09-12T06:33:36;21.80;;;16.60;;
43801;SDS011;29429;51.074;13.764;2023-09-12T06:36:04;17.77;;;15.85;;
43801;SDS011;29429;51.074;13.764;2023-09-12T06:38:32;17.80;;;14.30;;
43801;SDS011;29429;51.074;13.764;2023-09-12T06:40:59;16.30;;;14.63;;
43801;SDS011;29429;51.074;13.764;2023-09-12T06:43:27;17.48;;;15.57;;
43801;SDS011;29429;51.074;13.764;2023-09-12T06:45:54;16.95;;;14.68;;
43801;SDS011;29429;51.074;13.764;2023-09-12T06:48:22;18.52;;;15.65;;
43801;SDS011;29429;51.074;13.764;2023-09-12T06:50:49;16.27;;;14.68;;
43801;SDS011;29429;51.074;13.764;2023-09-12T06:53:19;17.50;;;15.65;;
43801;SDS011;29429;51.074;13.764;2023-09-12T06:55:47;15.48;;;13.88;;
43801;SDS011;29429;51.074;13.764;2023-09-12T06:58:15;14.75;;;13.18;;
43801;SDS011;29429;51.074;13.764;2023-09-12T07:00:42;20.67;;;16.23;;
43801;SDS011;29429;51.074;13.764;2023-09-12T07:03:10;14.63;;;13.13;;
43801;SDS011;29429;51.074;13.764;2023-09-12T07:05:42;15.35;;;13.75;;
43801;SDS011;29429;51.074;13.764;2023-09-12T07:08:10;16.15;;;13.63;;
43801;SDS011;29429;51.074;13.764;2023-09-12T07:10:43;14.77;;;13.27;;
43801;SDS011;29429;51.074;13.764;2023-09-12T07:13:12;16.33;;;13.93;;
43801;SDS011;29429;51.074;13.764;2023-09-12T07:15:39;15.38;;;13.15;;
43801;SDS011;29429;51.074;13.764;2023-09-12T07:18:07;15.95;;;12.50;;
43801;SDS011;29429;51.074;13.764;2023-09-12T07:20:34;15.70;;;13.43;;
43801;SDS011;29429;51.074;13.764;2023-09-12T07:23:02;14.82;;;13.20;;
43801;SDS011;29429;51.074;13.764;2023-09-12T07:25:29;14.00;;;12.60;;
43801;SDS011;29429;51.074;13.764;2023-09-12T07:28:01;13.60;;;11.90;;
43801;SDS011;29429;51.074;13.764;2023-09-12T07:30:30;13.30;;;11.82;;
43801;SDS011;29429;51.074;13.764;2023-09-12T07:32:57;13.25;;;11.85;;
43801;SDS011;29429;51.074;13.764;2023-09-12T07:35:25;14.70;;;12.30;;
43801;SDS011;29429;51.074;13.764;2023-09-12T07:37:52;14.32;;;12.82;;
43801;SDS011;29429;51.074;13.764;2023-09-12T07:40:20;13.65;;;12.25;;
43801;SDS011;29429;51.074;13.764;2023-09-12T07:42:47;13.32;;;11.93;;
43801;SDS011;29429;51.074;13.764;2023-09-12T07:45:14;14.75;;;12.27;;
43801;SDS011;29429;51.074;13.764;2023-09-12T07:47:42;13.15;;;11.57;;
43801;SDS011;29429;51.074;13.764;2023-09-12T07:50:09;13.32;;;11.73;;
43801;SDS011;29429;51.074;13.764;2023-09-12T07:52:37;12.63;;;11.18;;
43801;SDS011;29429;51.074;13.764;2023-09-12T07:55:05;12.65;;;11.35;;
43801;SDS011;29429;51.074;13.764;2023-09-12T07:57:33;13.70;;;11.35;;
43801;SDS011;29429;51.074;13.764;2023-09-12T08:00:04;11.98;;;10.70;;
43801;SDS011;29429;51.074;13.764;2023-09-12T08:02:39;14.38;;;11.50;;
43801;SDS011;29429;51.074;13.764;2023-09-12T08:05:07;12.68;;;10.73;;
43801;SDS011;29429;51.074;13.764;2023-09-12T08:07:36;10.57;;;9.57;;
43801;SDS011;29429;51.074;13.764;2023-09-12T08:10:04;11.40;;;10.20;;
43801;SDS011;29429;51.074;13.764;2023-09-12T08:12:32;10.98;;;9.88;;
43801;SDS011;29429;51.074;13.764;2023-09-12T08:14:59;12.25;;;10.43;;
43801;SDS011;29429;51.074;13.764;2023-09-12T08:17:27;12.23;;;10.60;;
43801;SDS011;29429;51.074;13.764;2023-09-12T08:19:54;13.20;;;10.65;;
43801;SDS011;29429;51.074;13.764;2023-09-12T08:22:22;11.00;;;9.77;;
43801;SDS011;29429;51.074;13.764;2023-09-12T08:24:49;11.68;;;9.75;;
43801;SDS011;29429;51.074;13.764;2023-09-12T08:27:17;10.98;;;9.18;;
43801;SDS011;29429;51.074;13.764;2023-09-12T08:29:44;10.77;;;8.25;;
43801;SDS011;29429;51.074;13.764;2023-09-12T08:32:14;9.48;;;8.23;;
43801;SDS011;29429;51.074;13.764;2023-09-12T08:34:42;10.45;;;8.27;;
43801;SDS011;29429;51.074;13.764;2023-09-12T08:37:09;10.05;;;8.40;;
43801;SDS011;29429;51.074;13.764;2023-09-12T08:39:41;10.00;;;8.10;;
43801;SDS011;29429;51.074;13.764;2023-09-12T08:42:14;12.07;;;8.13;;
43801;SDS011;29429;51.074;13.764;2023-09-12T08:44:45;9.68;;;8.35;;
43801;SDS011;29429;51.074;13.764;2023-09-12T08:47:13;8.38;;;7.50;;
43801;SDS011;29429;51.074;13.764;2023-09-12T08:49:42;9.90;;;8.05;;
43801;SDS011;29429;51.074;13.764;2023-09-12T08:52:10;9.20;;;8.23;;
43801;SDS011;29429;51.074;13.764;2023-09-12T08:54:38;10.05;;;8.60;;
43801;SDS011;29429;51.074;13.764;2023-09-12T08:57:06;9.63;;;8.00;;
43801;SDS011;29429;51.074;13.764;2023-09-12T08:59:36;9.32;;;7.55;;
43801;SDS011;29429;51.074;13.764;2023-09-12T09:02:05;8.48;;;7.38;;
43801;SDS011;29429;51.074;13.764;2023-09-12T09:04:35;8.88;;;7.47;;
43801;SDS011;29429;51.074;13.764;2023-09-12T09:07:05;11.23;;;7.80;;
43801;SDS011;29429;51.074;13.764;2023-09-12T09:09:36;7.57;;;6.80;;
43801;SDS011;29429;51.074;13.764;2023-09-12T09:12:08;8.52;;;7.32;;
43801;SDS011;29429;51.074;13.764;2023-09-12T09:15:19;14.80;;;7.97;;
43801;SDS011;29429;51.074;13.764;2023-09-12T09:17:57;13.88;;;7.75;;
43801;SDS011;29429;51.074;13.764;2023-09-12T09:23:27;8.93;;;7.70;;
43801;SDS011;29429;51.074;13.764;2023-09-12T09:26:23;14.00;;;7.05;;
43801;SDS011;29429;51.074;13.764;2023-09-12T09:29:02;8.98;;;6.97;;
43801;SDS011;29429;51.074;13.764;2023-09-12T09:31:51;8.27;;;7.13;;
43801;SDS011;29429;51.074;13.764;2023-09-12T09:35:20;7.88;;;6.30;;
43801;SDS011;29429;51.074;13.764;2023-09-12T09:37:51;10.88;;;7.30;;
43801;SDS011;29429;51.074;13.764;2023-09-12T09:40:21;8.50;;;6.47;;
43801;SDS011;29429;51.074;13.764;2023-09-12T09:42:53;8.40;;;6.57;;
43801;SDS011;29429;51.074;13.764;2023-09-12T09:45:30;10.52;;;6.68;;
43801;SDS011;29429;51.074;13.764;2023-09-12T09:48:05;7.75;;;6.22;;
43801;SDS011;29429;51.074;13.764;2023-09-12T09:50:34;8.07;;;6.45;;
43801;SDS011;29429;51.074;13.764;2023-09-12T09:56:11;10.48;;;5.40;;
43801;SDS011;29429;51.074;13.764;2023-09-12T09:58:47;7.38;;;5.45;;
43801;SDS011;29429;51.074;13.764;2023-09-12T10:01:18;7.90;;;5.78;;
43801;SDS011;29429;51.074;13.764;2023-09-12T10:03:48;6.85;;;5.65;;
43801;SDS011;29429;51.074;13.764;2023-09-12T10:06:17;10.60;;;6.18;;
43801;SDS011;29429;51.074;13.764;2023-09-12T10:08:50;7.10;;;5.57;;
43801;SDS011;29429;51.074;13.764;2023-09-12T10:11:22;6.47;;;5.53;;
43801;SDS011;29429;51.074;13.764;2023-09-12T10:14:04;9.13;;;5.50;;
43801;SDS011;29429;51.074;13.764;2023-09-12T10:17:04;5.70;;;5.10;;
43801;SDS011;29429;51.074;13.764;2023-09-12T10:19:38;8.00;;;5.63;;
43801;SDS011;29429;51.074;13.764;2023-09-12T10:22:21;6.93;;;4.88;;
43801;SDS011;29429;51.074;13.764;2023-09-12T10:27:52;8.45;;;5.20;;
43801;SDS011;29429;51.074;13.764;2023-09-12T10:30:21;6.82;;;4.47;;
43801;SDS011;29429;51.074;13.764;2023-09-12T10:33:54;7.53;;;5.03;;
43801;SDS011;29429;51.074;13.764;2023-09-12T10:36:50;7.90;;;4.32;;
43801;SDS011;29429;51.074;13.764;2023-09-12T10:39:19;11.98;;;5.25;;
43801;SDS011;29429;51.074;13.764;2023-09-12T10:45:54;8.95;;;4.75;;
43801;SDS011;29429;51.074;13.764;2023-09-12T10:48:24;11.68;;;5.95;;
43801;SDS011;29429;51.074;13.764;2023-09-12T10:51:44;8.65;;;4.70;;
43801;SDS011;29429;51.074;13.764;2023-09-12T10:54:40;7.90;;;5.18;;
43801;SDS011;29429;51.074;13.764;2023-09-12T10:57:10;10.70;;;5.40;;
43801;SDS011;29429;51.074;13.764;2023-09-12T11:00:09;11.68;;;5.35;;
43801;SDS011;29429;51.074;13.764;2023-09-12T11:05:56;15.20;;;5.72;;
43801;SDS011;29429;51.074;13.764;2023-09-12T11:08:24;9.50;;;5.10;;
43801;SDS011;29429;51.074;13.764;2023-09-12T11:14:18;12.75;;;6.07;;
43801;SDS011;29429;51.074;13.764;2023-09-12T11:19:46;6.72;;;5.25;;
43801;SDS011;29429;51.074;13.764;2023-09-12T11:22:25;10.65;;;5.20;;
43801;SDS011;29429;51.074;13.764;2023-09-12T11:24:54;11.70;;;5.30;;
43801;SDS011;29429;51.074;13.764;2023-09-12T11:27:23;10.63;;;5.43;;
43801;SDS011;29429;51.074;13.764;2023-09-12T11:32:47;11.18;;;5.40;;
43801;SDS011;29429;51.074;13.764;2023-09-12T11:35:35;12.95;;;5.80;;
43801;SDS011;29429;51.074;13.764;2023-09-12T11:38:08;10.60;;;5.35;;
43801;SDS011;29429;51.074;13.764;2023-09-12T11:40:42;12.63;;;5.13;;
43801;SDS011;29429;51.074;13.764;2023-09-12T11:43:26;12.65;;;5.47;;
43801;SDS011;29429;51.074;13.764;2023-09-12T11:50:48;9.80;;;4.88;;
43801;SDS011;29429;51.074;13.764;2023-09-12T12:02:27;8.98;;;5.00;;
43801;SDS011;29429;51.074;13.764;2023-09-12T13:52:06;9.10;;;3.67;;
43801;SDS011;29429;51.074;13.764;2023-09-12T13:54:35;7.43;;;3.33;;
43801;SDS011;29429;51.074;13.764;2023-09-12T13:58:17;8.00;;;3.45;;
43801;SDS011;29429;51.074;13.764;2023-09-12T14:00:49;8.52;;;4.15;;
43801;SDS011;29429;51.074;13.764;2023-09-12T14:03:24;7.45;;;3.50;;
43801;SDS011;29429;51.074;13.764;2023-09-12T14:06:56;6.63;;;3.30;;
43801;SDS011;29429;51.074;13.764;2023-09-12T16:28:38;7.80;;;4.07;;
43801;SDS011;29429;51.074;13.764;2023-09-12T16:31:05;6.72;;;3.78;;
43801;SDS011;29429;51.074;13.764;2023-09-12T16:33:33;6.07;;;3.58;;
43801;SDS011;29429;51.074;13.764;2023-09-12T16:36:00;8.98;;;3.85;;
43801;SDS011;29429;51.074;13.764;2023-09-12T16:38:28;6.18;;;4.05;;
43801;SDS011;29429;51.074;13.764;2023-09-12T16:40:59;7.07;;;4.05;;
43801;SDS011;29429;51.074;13.764;2023-09-12T16:43:27;5.53;;;3.78;;
43801;SDS011;29429;51.074;13.764;2023-09-12T16:45:54;7.28;;;4.38;;
43801;SDS011;29429;51.074;13.764;2023-09-12T16:48:23;4.95;;;3.80;;
43801;SDS011;29429;51.074;13.764;2023-09-12T16:50:50;8.52;;;4.75;;
43801;SDS011;29429;51.074;13.764;2023-09-12T16:53:57;8.38;;;3.88;;
43801;SDS011;29429;51.074;13.764;2023-09-12T16:56:25;6.72;;;4.25;;
43801;SDS011;29429;51.074;13.764;2023-09-12T16:58:53;7.50;;;3.78;;
43801;SDS011;29429;51.074;13.764;2023-09-12T17:01:20;6.95;;;3.60;;
43801;SDS011;29429;51.074;13.764;2023-09-12T17:03:52;7.95;;;4.47;;
43801;SDS011;29429;51.074;13.764;2023-09-12T17:06:30;6.50;;;3.90;;
43801;SDS011;29429;51.074;13.764;2023-09-12T17:08:57;7.85;;;3.90;;
43801;SDS011;29429;51.074;13.764;2023-09-12T17:11:29;8.68;;;4.78;;
43801;SDS011;29429;51.074;13.764;2023-09-12T17:13:56;7.25;;;4.40;;
43801;SDS011;29429;51.074;13.764;2023-09-12T17:16:24;8.18;;;4.43;;
43801;SDS011;29429;51.074;13.764;2023-09-12T17:18:52;6.50;;;3.78;;
43801;SDS011;29429;51.074;13.764;2023-09-12T17:21:19;7.40;;;4.45;;
43801;SDS011;29429;51.074;13.764;2023-09-12T17:23:46;10.73;;;4.40;;
43801;SDS011;29429;51.074;13.764;2023-09-12T17:26:16;10.35;;;4.97;;
43801;SDS011;29429;51.074;13.764;2023-09-12T17:28:44;6.70;;;4.38;;
43801;SDS011;29429;51.074;13.764;2023-09-12T17:31:12;5.38;;;4.00;;
43801;SDS011;29429;51.074;13.764;2023-09-12T17:33:41;7.05;;;4.57;;
43801;SDS011;29429;51.074;13.764;2023-09-12T17:36:09;7.80;;;4.07;;
43801;SDS011;29429;51.074;13.764;2023-09-12T17:38:36;13.15;;;4.57;;
43801;SDS011;29429;51.074;13.764;2023-09-12T17:41:07;5.95;;;4.32;;
43801;SDS011;29429;51.074;13.764;2023-09-12T17:43:35;8.48;;;5.15;;
43801;SDS011;29429;51.074;13.764;2023-09-12T17:46:03;9.60;;;4.68;;
43801;SDS011;29429;51.074;13.764;2023-09-12T17:48:37;11.05;;;4.47;;
43801;SDS011;29429;51.074;13.764;2023-09-12T18:31:51;9.73;;;4.65;;
43801;SDS011;29429;51.074;13.764;2023-09-12T18:34:19;10.13;;;3.80;;
43801;SDS011;29429;51.074;13.764;2023-09-12T18:36:47;5.55;;;3.75;;
43801;SDS011;29429;51.074;13.764;2023-09-12T18:39:14;10.52;;;5.25;;
43801;SDS011;29429;51.074;13.764;2023-09-12T18:41:42;9.63;;;4.82;;
43801;SDS011;29429;51.074;13.764;2023-09-12T18:44:10;8.65;;;4.50;;
43801;SDS011;29429;51.074;13.764;2023-09-12T18:46:38;9.60;;;4.55;;
43801;SDS011;29429;51.074;13.764;2023-09-12T18:49:05;5.88;;;3.80;;
43801;SDS011;29429;51.074;13.764;2023-09-12T18:51:37;8.55;;;4.82;;
43801;SDS011;29429;51.074;13.764;2023-09-12T18:54:04;8.82;;;4.32;;
43801;SDS011;29429;51.074;13.764;2023-09-12T18:56:32;8.15;;;4.70;;
43801;SDS011;29429;51.074;13.764;2023-09-12T18:58:59;10.35;;;4.53;;
43801;SDS011;29429;51.074;13.764;2023-09-12T19:01:33;8.70;;;4.82;;
43801;SDS011;29429;51.074;13.764;2023-09-12T19:06:51;8.98;;;4.90;;
43801;SDS011;29429;51.074;13.764;2023-09-12T19:09:19;10.73;;;5.03;;
43801;SDS011;29429;51.074;13.764;2023-09-12T19:11:47;6.93;;;4.68;;
43801;SDS011;29429;51.074;13.764;2023-09-12T19:14:15;13.77;;;4.70;;
43801;SDS011;29429;51.074;13.764;2023-09-12T19:16:43;7.38;;;4.10;;
43801;SDS011;29429;51.074;13.764;2023-09-12T19:19:11;6.57;;;4.63;;
43801;SDS011;29429;51.074;13.764;2023-09-12T19:21:38;8.50;;;5.07;;
43801;SDS011;29429;51.074;13.764;2023-09-12T19:24:06;7.00;;;4.47;;
43801;SDS011;29429;51.074;13.764;2023-09-12T19:26:35;8.60;;;4.50;;
43801;SDS011;29429;51.074;13.764;2023-09-12T19:29:03;8.55;;;4.50;;
43801;SDS011;29429;51.074;13.764;2023-09-12T19:31:30;8.55;;;4.05;;
43801;SDS011;29429;51.074;13.764;2023-09-12T19:33:58;9.43;;;5.22;;
43801;SDS011;29429;51.074;13.764;2023-09-12T19:36:26;7.03;;;4.38;;
43801;SDS011;29429;51.074;13.764;2023-09-12T19:38:53;6.68;;;4.47;;
43801;SDS011;29429;51.074;13.764;2023-09-12T19:41:21;7.45;;;5.00;;
43801;SDS011;29429;51.074;13.764;2023-09-12T19:43:48;7.70;;;5.07;;
43801;SDS011;29429;51.074;13.764;2023-09-12T19:46:16;9.13;;;5.22;;
43801;SDS011;29429;51.074;13.764;2023-09-12T19:48:43;7.40;;;4.78;;
43801;SDS011;29429;51.074;13.764;2023-09-12T19:51:11;7.70;;;4.78;;
43801;SDS011;29429;51.074;13.764;2023-09-12T19:53:39;12.60;;;5.47;;
43801;SDS011;29429;51.074;13.764;2023-09-12T19:56:07;10.45;;;4.72;;
43801;SDS011;29429;51.074;13.764;2023-09-12T19:58:37;9.18;;;5.00;;
43801;SDS011;29429;51.074;13.764;2023-09-12T20:01:04;6.90;;;4.88;;
43801;SDS011;29429;51.074;13.764;2023-09-12T20:03:33;11.30;;;5.28;;
43801;SDS011;29429;51.074;13.764;2023-09-12T20:06:01;8.40;;;5.30;;
43801;SDS011;29429;51.074;13.764;2023-09-12T20:08:29;10.02;;;5.15;;
43801;SDS011;29429;51.074;13.764;2023-09-12T20:10:57;12.57;;;5.60;;
43801;SDS011;29429;51.074;13.764;2023-09-12T20:13:26;14.50;;;5.63;;